sensor_id;sensor_type;location;lat;lon;timestamp;pressure;altitude;pressure_sealevel;temperature;humidity
16777;BME280;8505;49.456;8.164;2022-10-31T00:00:48;100176.91;;;11.84;83.54
16777;BME280;8505;49.456;8.164;2022-10-31T00:03:16;100179.06;;;11.81;83.59
16777;BME280;8505;49.456;8.164;2022-10-31T00:05:47;100180.56;;;11.75;83.93
16777;BME280;8505;49.456;8.164;2022-10-31T00:08:17;100185.34;;;11.71;84.07
16777;BME280;8505;49.456;8.164;2022-10-31T00:10:46;100182.03;;;11.69;84.29
16777;BME280;8505;49.456;8.164;2022-10-31T00:13:14;100195.78;;;11.73;83.93
16777;BME280;8505;49.456;8.164;2022-10-31T00:15:42;100196.28;;;11.68;84.24
16777;BME280;8505;49.456;8.164;2022-10-31T00:18:11;100188.16;;;11.70;84.39
16777;BME280;8505;49.456;8.164;2022-10-31T00:20:39;100187.03;;;11.72;84.28
16777;BME280;8505;49.456;8.164;2022-10-31T00:23:07;100188.69;;;11.73;84.04
16777;BME280;8505;49.456;8.164;2022-10-31T00:25:37;100183.22;;;11.75;84.18
16777;BME280;8505;49.456;8.164;2022-10-31T00:28:09;100187.38;;;11.78;84.04
16777;BME280;8505;49.456;8.164;2022-10-31T00:30:39;100191.19;;;11.75;83.90
16777;BME280;8505;49.456;8.164;2022-10-31T00:33:07;100195.97;;;11.71;84.07
16777;BME280;8505;49.456;8.164;2022-10-31T00:35:34;100202.78;;;11.66;84.40
16777;BME280;8505;49.456;8.164;2022-10-31T00:38:04;100194.16;;;11.64;84.62
16777;BME280;8505;49.456;8.164;2022-10-31T00:40:34;100198.94;;;11.68;84.21
16777;BME280;8505;49.456;8.164;2022-10-31T00:43:04;100196.81;;;11.72;83.86
16777;BME280;8505;49.456;8.164;2022-10-31T00:45:35;100198.31;;;11.66;84.21
16777;BME280;8505;49.456;8.164;2022-10-31T00:48:06;100197.47;;;11.74;83.92
16777;BME280;8505;49.456;8.164;2022-10-31T00:50:38;100192.47;;;11.79;83.68
16777;BME280;8505;49.456;8.164;2022-10-31T00:53:12;100186.84;;;11.74;83.96
16777;BME280;8505;49.456;8.164;2022-10-31T00:55:42;100191.00;;;11.77;84.05
16777;BME280;8505;49.456;8.164;2022-10-31T00:58:10;100193.00;;;11.74;83.90
16777;BME280;8505;49.456;8.164;2022-10-31T01:00:39;100195.13;;;11.71;84.23
16777;BME280;8505;49.456;8.164;2022-10-31T01:03:10;100193.63;;;11.68;84.05
16777;BME280;8505;49.456;8.164;2022-10-31T01:05:38;100196.63;;;11.57;84.55
16777;BME280;8505;49.456;8.164;2022-10-31T01:08:06;100201.44;;;11.54;84.91
16777;BME280;8505;49.456;8.164;2022-10-31T01:10:34;100198.59;;;11.55;84.74
16777;BME280;8505;49.456;8.164;2022-10-31T01:13:02;100203.75;;;11.57;84.93
16777;BME280;8505;49.456;8.164;2022-10-31T01:15:30;100202.44;;;11.53;85.22
16777;BME280;8505;49.456;8.164;2022-10-31T01:17:59;100204.09;;;11.54;85.11
16777;BME280;8505;49.456;8.164;2022-10-31T01:20:28;100192.31;;;11.56;85.12
16777;BME280;8505;49.456;8.164;2022-10-31T01:22:57;100198.13;;;11.52;85.05
16777;BME280;8505;49.456;8.164;2022-10-31T01:25:24;100202.09;;;11.56;85.08
16777;BME280;8505;49.456;8.164;2022-10-31T01:27:52;100185.50;;;11.62;84.75
16777;BME280;8505;49.456;8.164;2022-10-31T01:30:20;100188.50;;;11.59;84.81
16777;BME280;8505;49.456;8.164;2022-10-31T01:32:49;100189.16;;;11.61;84.66
16777;BME280;8505;49.456;8.164;2022-10-31T01:35:21;100188.50;;;11.67;84.59
16777;BME280;8505;49.456;8.164;2022-10-31T01:37:49;100189.00;;;11.54;85.19
16777;BME280;8505;49.456;8.164;2022-10-31T01:40:17;100183.69;;;11.54;85.10
16777;BME280;8505;49.456;8.164;2022-10-31T01:42:45;100187.84;;;11.49;85.43
16777;BME280;8505;49.456;8.164;2022-10-31T01:45:39;100182.53;;;11.49;85.31
16777;BME280;8505;49.456;8.164;2022-10-31T01:48:11;100184.34;;;11.48;85.10
16777;BME280;8505;49.456;8.164;2022-10-31T01:50:43;100183.38;;;11.41;85.68
16777;BME280;8505;49.456;8.164;2022-10-31T01:53:15;100181.88;;;11.47;85.45
16777;BME280;8505;49.456;8.164;2022-10-31T01:55:47;100187.00;;;11.48;85.36
16777;BME280;8505;49.456;8.164;2022-10-31T01:58:19;100188.84;;;11.48;85.33
16777;BME280;8505;49.456;8.164;2022-10-31T02:00:51;100187.84;;;11.49;85.08
16777;BME280;8505;49.456;8.164;2022-10-31T02:03:21;100187.19;;;11.47;85.49
16777;BME280;8505;49.456;8.164;2022-10-31T02:05:53;100183.19;;;11.43;85.52
16777;BME280;8505;49.456;8.164;2022-10-31T02:08:26;100183.72;;;11.46;85.47
16777;BME280;8505;49.456;8.164;2022-10-31T02:10:56;100193.47;;;11.38;85.99
16777;BME280;8505;49.456;8.164;2022-10-31T02:13:25;100191.81;;;11.45;85.57
16777;BME280;8505;49.456;8.164;2022-10-31T02:15:55;100186.84;;;11.50;85.31
16777;BME280;8505;49.456;8.164;2022-10-31T02:18:26;100184.88;;;11.60;84.95
16777;BME280;8505;49.456;8.164;2022-10-31T02:21:04;100189.16;;;11.61;84.95
16777;BME280;8505;49.456;8.164;2022-10-31T02:26:45;100194.16;;;11.64;84.66
16777;BME280;8505;49.456;8.164;2022-10-31T02:29:32;100183.03;;;11.60;84.78
16777;BME280;8505;49.456;8.164;2022-10-31T02:32:09;100182.22;;;11.60;84.93
16777;BME280;8505;49.456;8.164;2022-10-31T02:34:45;100196.16;;;11.54;85.20
16777;BME280;8505;49.456;8.164;2022-10-31T02:37:22;100179.22;;;11.55;85.07
16777;BME280;8505;49.456;8.164;2022-10-31T02:39:56;100187.69;;;11.50;85.35
16777;BME280;8505;49.456;8.164;2022-10-31T02:42:33;100188.69;;;11.41;85.49
16777;BME280;8505;49.456;8.164;2022-10-31T02:45:07;100196.13;;;11.62;85.19
16777;BME280;8505;49.456;8.164;2022-10-31T02:47:40;100189.03;;;11.79;84.43
16777;BME280;8505;49.456;8.164;2022-10-31T02:50:14;100189.50;;;11.90;83.93
16777;BME280;8505;49.456;8.164;2022-10-31T02:52:50;100180.41;;;11.85;83.50
16777;BME280;8505;49.456;8.164;2022-10-31T02:55:42;100187.16;;;12.03;83.33
16777;BME280;8505;49.456;8.164;2022-10-31T02:58:14;100189.63;;;12.05;83.06
16777;BME280;8505;49.456;8.164;2022-10-31T03:01:04;100189.00;;;11.95;82.83
16777;BME280;8505;49.456;8.164;2022-10-31T03:03:48;100179.84;;;11.73;83.94
16777;BME280;8505;49.456;8.164;2022-10-31T03:06:25;100182.84;;;11.86;83.47
16777;BME280;8505;49.456;8.164;2022-10-31T03:09:04;100178.91;;;11.82;83.22
16777;BME280;8505;49.456;8.164;2022-10-31T03:11:42;100179.56;;;11.76;83.61
16777;BME280;8505;49.456;8.164;2022-10-31T03:14:13;100184.53;;;11.63;84.10
16777;BME280;8505;49.456;8.164;2022-10-31T03:16:46;100185.50;;;11.62;84.41
16777;BME280;8505;49.456;8.164;2022-10-31T03:19:19;100188.34;;;11.52;84.64
16777;BME280;8505;49.456;8.164;2022-10-31T03:21:51;100182.72;;;11.47;84.96
16777;BME280;8505;49.456;8.164;2022-10-31T03:24:22;100180.53;;;11.43;85.22
16777;BME280;8505;49.456;8.164;2022-10-31T03:26:55;100184.53;;;11.39;85.57
16777;BME280;8505;49.456;8.164;2022-10-31T03:29:27;100182.56;;;11.41;85.59
16777;BME280;8505;49.456;8.164;2022-10-31T03:31:58;100188.84;;;11.40;85.32
16777;BME280;8505;49.456;8.164;2022-10-31T03:34:30;100191.31;;;11.33;85.94
16777;BME280;8505;49.456;8.164;2022-10-31T03:37:01;100185.38;;;11.39;85.73
16777;BME280;8505;49.456;8.164;2022-10-31T03:39:31;100182.53;;;11.32;86.02
16777;BME280;8505;49.456;8.164;2022-10-31T03:42:08;100185.03;;;11.34;86.00
16777;BME280;8505;49.456;8.164;2022-10-31T03:44:38;100178.41;;;11.22;86.27
16777;BME280;8505;49.456;8.164;2022-10-31T03:47:08;100186.81;;;11.01;87.17
16777;BME280;8505;49.456;8.164;2022-10-31T03:49:38;100191.63;;;10.98;87.56
16777;BME280;8505;49.456;8.164;2022-10-31T03:52:14;100186.63;;;10.94;87.36
16777;BME280;8505;49.456;8.164;2022-10-31T03:54:45;100193.38;;;10.81;88.19
16777;BME280;8505;49.456;8.164;2022-10-31T03:57:18;100191.41;;;10.83;88.26
16777;BME280;8505;49.456;8.164;2022-10-31T03:59:53;100185.13;;;10.84;88.35
16777;BME280;8505;49.456;8.164;2022-10-31T04:02:27;100183.94;;;10.86;88.07
16777;BME280;8505;49.456;8.164;2022-10-31T04:04:59;100190.44;;;10.84;88.00
16777;BME280;8505;49.456;8.164;2022-10-31T04:07:30;100188.28;;;10.79;88.53
16777;BME280;8505;49.456;8.164;2022-10-31T04:10:04;100195.03;;;10.82;88.48
16777;BME280;8505;49.456;8.164;2022-10-31T04:12:34;100191.03;;;10.70;88.71
16777;BME280;8505;49.456;8.164;2022-10-31T04:15:04;100196.84;;;10.73;88.86
16777;BME280;8505;49.456;8.164;2022-10-31T04:17:37;100196.84;;;10.73;88.71
16777;BME280;8505;49.456;8.164;2022-10-31T04:20:10;100201.13;;;10.66;89.29
16777;BME280;8505;49.456;8.164;2022-10-31T04:22:38;100197.78;;;10.56;89.14
16777;BME280;8505;49.456;8.164;2022-10-31T04:25:09;100193.31;;;10.57;89.49
16777;BME280;8505;49.456;8.164;2022-10-31T04:27:41;100192.13;;;10.43;90.06
16777;BME280;8505;49.456;8.164;2022-10-31T04:30:11;100189.28;;;10.44;89.96
16777;BME280;8505;49.456;8.164;2022-10-31T04:32:39;100195.94;;;10.48;89.70
16777;BME280;8505;49.456;8.164;2022-10-31T04:35:08;100198.19;;;10.35;90.45
16777;BME280;8505;49.456;8.164;2022-10-31T04:37:36;100193.25;;;10.40;90.25
16777;BME280;8505;49.456;8.164;2022-10-31T04:40:05;100198.69;;;10.39;90.23
16777;BME280;8505;49.456;8.164;2022-10-31T04:42:33;100195.69;;;10.34;90.35
16777;BME280;8505;49.456;8.164;2022-10-31T04:45:01;100189.44;;;10.35;90.50
16777;BME280;8505;49.456;8.164;2022-10-31T04:47:30;100199.19;;;10.34;90.43
16777;BME280;8505;49.456;8.164;2022-10-31T04:49:58;100197.22;;;10.36;90.42
16777;BME280;8505;49.456;8.164;2022-10-31T04:52:29;100187.63;;;10.35;90.34
16777;BME280;8505;49.456;8.164;2022-10-31T04:54:56;100176.53;;;10.40;90.45
16777;BME280;8505;49.456;8.164;2022-10-31T04:57:24;100187.47;;;10.37;90.44
16777;BME280;8505;49.456;8.164;2022-10-31T04:59:53;100187.97;;;10.40;90.25
16777;BME280;8505;49.456;8.164;2022-10-31T05:02:20;100191.41;;;10.33;90.67
16777;BME280;8505;49.456;8.164;2022-10-31T05:04:48;100183.94;;;10.28;90.53
16777;BME280;8505;49.456;8.164;2022-10-31T05:07:16;100178.31;;;10.31;90.60
16777;BME280;8505;49.456;8.164;2022-10-31T05:09:46;100171.53;;;10.29;90.67
16777;BME280;8505;49.456;8.164;2022-10-31T05:12:13;100166.25;;;10.29;90.80
16777;BME280;8505;49.456;8.164;2022-10-31T05:14:41;100172.03;;;10.24;90.71
16777;BME280;8505;49.456;8.164;2022-10-31T05:17:13;100170.16;;;10.25;90.80
16777;BME280;8505;49.456;8.164;2022-10-31T05:19:41;100170.16;;;10.25;90.86
16777;BME280;8505;49.456;8.164;2022-10-31T05:22:09;100170.00;;;10.18;91.41
16777;BME280;8505;49.456;8.164;2022-10-31T05:24:37;100170.97;;;10.17;91.32
16777;BME280;8505;49.456;8.164;2022-10-31T05:27:06;100164.72;;;10.18;91.39
16777;BME280;8505;49.456;8.164;2022-10-31T05:29:34;100161.44;;;10.24;91.19
16777;BME280;8505;49.456;8.164;2022-10-31T05:32:06;100161.44;;;10.24;91.40
16777;BME280;8505;49.456;8.164;2022-10-31T05:34:34;100160.06;;;10.20;91.24
16777;BME280;8505;49.456;8.164;2022-10-31T05:37:02;100150.00;;;10.24;91.14
16777;BME280;8505;49.456;8.164;2022-10-31T05:39:30;100142.56;;;10.27;91.18
16777;BME280;8505;49.456;8.164;2022-10-31T05:41:58;100147.84;;;10.27;91.13
16777;BME280;8505;49.456;8.164;2022-10-31T05:44:27;100152.47;;;10.25;91.09
16777;BME280;8505;49.456;8.164;2022-10-31T05:46:55;100152.31;;;10.27;91.13
16777;BME280;8505;49.456;8.164;2022-10-31T05:49:23;100147.19;;;10.25;91.09
16777;BME280;8505;49.456;8.164;2022-10-31T05:51:51;100150.84;;;10.24;91.00
16777;BME280;8505;49.456;8.164;2022-10-31T05:54:19;100147.03;;;10.27;91.18
16777;BME280;8505;49.456;8.164;2022-10-31T05:56:47;100152.31;;;10.27;91.12
16777;BME280;8505;49.456;8.164;2022-10-31T05:59:15;100145.69;;;10.23;90.66
16777;BME280;8505;49.456;8.164;2022-10-31T06:01:45;100152.28;;;10.19;91.44
16777;BME280;8505;49.456;8.164;2022-10-31T06:04:13;100148.84;;;10.26;91.33
16777;BME280;8505;49.456;8.164;2022-10-31T06:06:40;100138.75;;;10.22;91.29
16777;BME280;8505;49.456;8.164;2022-10-31T06:09:08;100135.75;;;10.25;91.17
16777;BME280;8505;49.456;8.164;2022-10-31T06:11:36;100137.97;;;10.29;90.84
16777;BME280;8505;49.456;8.164;2022-10-31T06:14:04;100140.59;;;10.37;90.60
16777;BME280;8505;49.456;8.164;2022-10-31T06:16:32;100130.84;;;10.38;90.48
16777;BME280;8505;49.456;8.164;2022-10-31T06:19:02;100139.63;;;10.38;90.68
16777;BME280;8505;49.456;8.164;2022-10-31T06:21:30;100140.41;;;10.31;91.11
16777;BME280;8505;49.456;8.164;2022-10-31T06:23:57;100139.13;;;10.35;90.69
16777;BME280;8505;49.456;8.164;2022-10-31T06:26:25;100142.81;;;10.42;90.49
16777;BME280;8505;49.456;8.164;2022-10-31T06:28:53;100143.97;;;10.47;90.30
16777;BME280;8505;49.456;8.164;2022-10-31T06:31:28;100150.44;;;10.53;90.01
16777;BME280;8505;49.456;8.164;2022-10-31T06:33:56;100148.59;;;10.45;90.24
16777;BME280;8505;49.456;8.164;2022-10-31T06:36:25;100155.22;;;10.41;90.60
16777;BME280;8505;49.456;8.164;2022-10-31T06:38:56;100150.94;;;10.48;89.89
16777;BME280;8505;49.456;8.164;2022-10-31T06:41:24;100162.81;;;10.44;90.16
16777;BME280;8505;49.456;8.164;2022-10-31T06:43:53;100162.69;;;10.54;89.70
16777;BME280;8505;49.456;8.164;2022-10-31T06:46:24;100163.72;;;10.61;89.45
16777;BME280;8505;49.456;8.164;2022-10-31T06:48:51;100171.81;;;10.60;89.29
16777;BME280;8505;49.456;8.164;2022-10-31T06:51:21;100176.81;;;10.71;89.20
16777;BME280;8505;49.456;8.164;2022-10-31T06:53:51;100170.91;;;10.85;88.63
16777;BME280;8505;49.456;8.164;2022-10-31T06:56:19;100172.56;;;10.86;88.13
16777;BME280;8505;49.456;8.164;2022-10-31T06:58:47;100173.50;;;10.77;89.49
16777;BME280;8505;49.456;8.164;2022-10-31T07:01:18;100173.44;;;11.27;87.43
16777;BME280;8505;49.456;8.164;2022-10-31T07:03:46;100176.25;;;11.42;86.18
16777;BME280;8505;49.456;8.164;2022-10-31T07:06:14;100168.13;;;11.51;86.16
16777;BME280;8505;49.456;8.164;2022-10-31T07:08:42;100175.72;;;11.54;86.34
16777;BME280;8505;49.456;8.164;2022-10-31T07:11:11;100170.78;;;11.75;85.73
16777;BME280;8505;49.456;8.164;2022-10-31T07:13:39;100172.59;;;11.83;85.12
16777;BME280;8505;49.456;8.164;2022-10-31T07:16:08;100172.56;;;11.91;84.94
16777;BME280;8505;49.456;8.164;2022-10-31T07:18:38;100177.38;;;11.96;84.90
16777;BME280;8505;49.456;8.164;2022-10-31T07:21:07;100168.56;;;12.03;85.15
16777;BME280;8505;49.456;8.164;2022-10-31T07:23:35;100169.88;;;12.15;85.40
16777;BME280;8505;49.456;8.164;2022-10-31T07:26:03;100170.47;;;12.34;84.82
16777;BME280;8505;49.456;8.164;2022-10-31T07:28:32;100163.13;;;12.44;83.97
16777;BME280;8505;49.456;8.164;2022-10-31T07:31:01;100169.91;;;12.46;83.39
16777;BME280;8505;49.456;8.164;2022-10-31T07:33:29;100170.09;;;12.37;83.46
16777;BME280;8505;49.456;8.164;2022-10-31T07:35:57;100171.78;;;12.38;84.37
16777;BME280;8505;49.456;8.164;2022-10-31T07:38:25;100171.00;;;12.60;84.04
16777;BME280;8505;49.456;8.164;2022-10-31T07:40:53;100170.94;;;12.76;83.00
16777;BME280;8505;49.456;8.164;2022-10-31T07:43:21;100169.44;;;12.96;82.81
16777;BME280;8505;49.456;8.164;2022-10-31T07:45:51;100163.38;;;13.11;82.01
16777;BME280;8505;49.456;8.164;2022-10-31T07:48:19;100166.03;;;13.19;81.35
16777;BME280;8505;49.456;8.164;2022-10-31T07:50:47;100169.06;;;13.08;81.06
16777;BME280;8505;49.456;8.164;2022-10-31T07:53:15;100170.69;;;13.09;81.53
16777;BME280;8505;49.456;8.164;2022-10-31T07:55:43;100162.38;;;13.20;81.23
16777;BME280;8505;49.456;8.164;2022-10-31T07:58:12;100161.41;;;13.35;81.18
16777;BME280;8505;49.456;8.164;2022-10-31T08:00:42;100161.06;;;13.53;80.40
16777;BME280;8505;49.456;8.164;2022-10-31T08:03:13;100165.25;;;13.70;79.93
16777;BME280;8505;49.456;8.164;2022-10-31T08:05:42;100163.25;;;13.87;79.17
16777;BME280;8505;49.456;8.164;2022-10-31T08:08:13;100163.25;;;14.02;78.93
16777;BME280;8505;49.456;8.164;2022-10-31T08:10:41;100163.44;;;14.15;78.51
16777;BME280;8505;49.456;8.164;2022-10-31T08:13:11;100163.28;;;14.31;77.82
16777;BME280;8505;49.456;8.164;2022-10-31T08:15:39;100163.28;;;14.46;77.21
16777;BME280;8505;49.456;8.164;2022-10-31T08:18:12;100154.88;;;14.64;76.30
16777;BME280;8505;49.456;8.164;2022-10-31T08:20:44;100160.59;;;14.61;76.36
16777;BME280;8505;49.456;8.164;2022-10-31T08:23:22;100160.91;;;15.08;76.24
16777;BME280;8505;49.456;8.164;2022-10-31T08:25:58;100158.00;;;14.67;77.07
16777;BME280;8505;49.456;8.164;2022-10-31T08:28:26;100153.13;;;14.71;76.54
16777;BME280;8505;49.456;8.164;2022-10-31T08:30:54;100160.97;;;14.93;76.11
16777;BME280;8505;49.456;8.164;2022-10-31T08:33:23;100155.47;;;15.16;74.63
16777;BME280;8505;49.456;8.164;2022-10-31T08:35:51;100157.13;;;15.17;74.26
16777;BME280;8505;49.456;8.164;2022-10-31T08:38:19;100159.91;;;15.30;73.59
16777;BME280;8505;49.456;8.164;2022-10-31T08:40:48;100153.47;;;15.67;72.76
16777;BME280;8505;49.456;8.164;2022-10-31T08:43:17;100154.59;;;15.86;70.79
16777;BME280;8505;49.456;8.164;2022-10-31T08:45:48;100155.56;;;16.06;71.97
16777;BME280;8505;49.456;8.164;2022-10-31T08:48:17;100156.63;;;16.12;69.81
16777;BME280;8505;49.456;8.164;2022-10-31T08:50:47;100150.59;;;15.48;73.41
16777;BME280;8505;49.456;8.164;2022-10-31T08:53:16;100144.75;;;15.87;72.09
16777;BME280;8505;49.456;8.164;2022-10-31T08:55:46;100142.88;;;16.15;70.33
16777;BME280;8505;49.456;8.164;2022-10-31T08:58:15;100140.09;;;16.36;69.64
16777;BME280;8505;49.456;8.164;2022-10-31T09:00:43;100151.44;;;16.45;70.15
16777;BME280;8505;49.456;8.164;2022-10-31T09:03:13;100149.53;;;16.32;70.96
16777;BME280;8505;49.456;8.164;2022-10-31T09:05:42;100142.19;;;16.41;70.85
16777;BME280;8505;49.456;8.164;2022-10-31T09:08:12;100146.72;;;16.40;70.92
16777;BME280;8505;49.456;8.164;2022-10-31T09:10:43;100150.09;;;16.62;70.25
16777;BME280;8505;49.456;8.164;2022-10-31T09:13:13;100142.94;;;16.28;70.87
16777;BME280;8505;49.456;8.164;2022-10-31T09:15:43;100136.88;;;16.47;69.85
16777;BME280;8505;49.456;8.164;2022-10-31T09:18:12;100138.84;;;16.32;71.17
16777;BME280;8505;49.456;8.164;2022-10-31T09:20:42;100139.16;;;16.57;70.79
16777;BME280;8505;49.456;8.164;2022-10-31T09:23:14;100135.63;;;16.50;70.81
16777;BME280;8505;49.456;8.164;2022-10-31T09:25:43;100132.50;;;16.87;69.98
16777;BME280;8505;49.456;8.164;2022-10-31T09:28:18;100131.47;;;16.95;69.62
16777;BME280;8505;49.456;8.164;2022-10-31T09:30:48;100133.75;;;17.05;69.08
16777;BME280;8505;49.456;8.164;2022-10-31T09:33:17;100126.56;;;17.25;67.79
16777;BME280;8505;49.456;8.164;2022-10-31T09:35:46;100126.38;;;17.13;68.03
16777;BME280;8505;49.456;8.164;2022-10-31T09:38:17;100126.16;;;17.02;69.17
16777;BME280;8505;49.456;8.164;2022-10-31T09:40:47;100116.50;;;17.14;67.86
16777;BME280;8505;49.456;8.164;2022-10-31T09:43:24;100111.13;;;17.47;67.95
16777;BME280;8505;49.456;8.164;2022-10-31T09:46:00;100114.44;;;17.42;67.94
16777;BME280;8505;49.456;8.164;2022-10-31T09:48:39;100106.59;;;17.54;67.47
16777;BME280;8505;49.456;8.164;2022-10-31T09:51:12;100114.22;;;17.50;67.14
16777;BME280;8505;49.456;8.164;2022-10-31T09:53:45;100109.91;;;17.82;66.17
16777;BME280;8505;49.456;8.164;2022-10-31T09:56:17;100113.53;;;18.14;65.00
16777;BME280;8505;49.456;8.164;2022-10-31T09:58:50;100115.81;;;18.04;64.89
16777;BME280;8505;49.456;8.164;2022-10-31T10:01:40;100106.06;;;18.23;64.73
16777;BME280;8505;49.456;8.164;2022-10-31T10:04:34;100107.66;;;18.37;65.13
16777;BME280;8505;49.456;8.164;2022-10-31T10:07:13;100102.25;;;18.56;63.91
16777;BME280;8505;49.456;8.164;2022-10-31T10:09:45;100101.22;;;18.89;62.98
16777;BME280;8505;49.456;8.164;2022-10-31T10:12:18;100096.06;;;18.56;64.05
16777;BME280;8505;49.456;8.164;2022-10-31T10:15:04;100094.81;;;18.45;64.64
16777;BME280;8505;49.456;8.164;2022-10-31T10:17:41;100096.06;;;18.87;62.27
16777;BME280;8505;49.456;8.164;2022-10-31T10:20:18;100093.59;;;18.86;62.64
16777;BME280;8505;49.456;8.164;2022-10-31T10:22:56;100091.53;;;19.44;61.75
16777;BME280;8505;49.456;8.164;2022-10-31T10:25:37;100089.69;;;19.38;61.49
16777;BME280;8505;49.456;8.164;2022-10-31T10:28:17;100093.88;;;19.59;61.33
16777;BME280;8505;49.456;8.164;2022-10-31T10:30:50;100089.03;;;19.43;61.73
16777;BME280;8505;49.456;8.164;2022-10-31T10:33:24;100089.81;;;19.93;60.14
16777;BME280;8505;49.456;8.164;2022-10-31T10:35:59;100089.88;;;19.43;61.48
16777;BME280;8505;49.456;8.164;2022-10-31T10:38:31;100087.50;;;20.33;59.16
16777;BME280;8505;49.456;8.164;2022-10-31T10:41:07;100072.78;;;21.07;57.59
16777;BME280;8505;49.456;8.164;2022-10-31T10:43:38;100077.78;;;21.33;56.74
16777;BME280;8505;49.456;8.164;2022-10-31T10:46:19;100066.06;;;21.62;53.48
16777;BME280;8505;49.456;8.164;2022-10-31T10:49:15;100067.22;;;21.55;54.69
16777;BME280;8505;49.456;8.164;2022-10-31T10:51:46;100069.06;;;21.08;56.07
16777;BME280;8505;49.456;8.164;2022-10-31T10:54:49;100069.84;;;20.55;59.11
16777;BME280;8505;49.456;8.164;2022-10-31T10:57:44;100055.63;;;21.54;55.95
16777;BME280;8505;49.456;8.164;2022-10-31T11:00:32;100062.09;;;21.53;55.89
16777;BME280;8505;49.456;8.164;2022-10-31T11:03:02;100053.09;;;20.94;57.70
16777;BME280;8505;49.456;8.164;2022-10-31T11:05:36;100050.28;;;20.30;58.61
16777;BME280;8505;49.456;8.164;2022-10-31T11:08:05;100045.84;;;21.07;57.76
16777;BME280;8505;49.456;8.164;2022-10-31T11:10:34;100044.84;;;20.00;60.24
16777;BME280;8505;49.456;8.164;2022-10-31T11:13:17;100042.75;;;21.45;57.00
16777;BME280;8505;49.456;8.164;2022-10-31T11:15:55;100037.03;;;21.41;56.45
16777;BME280;8505;49.456;8.164;2022-10-31T11:18:29;100030.75;;;21.06;57.83
16777;BME280;8505;49.456;8.164;2022-10-31T11:20:59;100035.25;;;21.58;56.11
16777;BME280;8505;49.456;8.164;2022-10-31T11:23:29;100037.44;;;21.73;55.81
16777;BME280;8505;49.456;8.164;2022-10-31T11:25:59;100023.03;;;21.67;55.19
16777;BME280;8505;49.456;8.164;2022-10-31T11:28:30;100012.19;;;21.27;56.79
16777;BME280;8505;49.456;8.164;2022-10-31T11:31:00;100012.84;;;20.28;59.56
16777;BME280;8505;49.456;8.164;2022-10-31T11:33:31;100007.06;;;20.84;58.66
16777;BME280;8505;49.456;8.164;2022-10-31T11:36:01;100007.31;;;20.41;58.85
16777;BME280;8505;49.456;8.164;2022-10-31T11:38:33;99999.94;;;20.78;59.23
16777;BME280;8505;49.456;8.164;2022-10-31T11:41:10;100006.00;;;20.14;60.03
16777;BME280;8505;49.456;8.164;2022-10-31T11:43:48;100002.47;;;20.13;60.29
16777;BME280;8505;49.456;8.164;2022-10-31T11:46:26;100003.59;;;20.06;61.37
16777;BME280;8505;49.456;8.164;2022-10-31T11:48:56;99997.59;;;19.74;62.03
16777;BME280;8505;49.456;8.164;2022-10-31T11:51:25;99983.94;;;19.75;62.38
16777;BME280;8505;49.456;8.164;2022-10-31T11:53:56;99985.16;;;19.61;62.79
16777;BME280;8505;49.456;8.164;2022-10-31T11:56:38;99980.31;;;20.00;61.98
16777;BME280;8505;49.456;8.164;2022-10-31T11:59:17;99981.44;;;20.10;61.12
16777;BME280;8505;49.456;8.164;2022-10-31T12:01:47;99978.03;;;19.85;61.01
16777;BME280;8505;49.456;8.164;2022-10-31T12:04:16;99976.41;;;20.14;60.90
16777;BME280;8505;49.456;8.164;2022-10-31T12:06:45;99969.38;;;19.65;61.97
16777;BME280;8505;49.456;8.164;2022-10-31T12:09:19;99967.47;;;20.02;61.66
16777;BME280;8505;49.456;8.164;2022-10-31T12:14:49;99957.63;;;20.26;60.95
16777;BME280;8505;49.456;8.164;2022-10-31T12:17:23;99964.34;;;20.05;60.75
16777;BME280;8505;49.456;8.164;2022-10-31T12:20:02;99961.47;;;20.18;60.22
16777;BME280;8505;49.456;8.164;2022-10-31T12:22:38;99973.97;;;19.94;60.87
16777;BME280;8505;49.456;8.164;2022-10-31T12:25:20;99969.09;;;19.55;62.21
16777;BME280;8505;49.456;8.164;2022-10-31T12:28:14;99964.09;;;20.06;61.16
16777;BME280;8505;49.456;8.164;2022-10-31T12:30:58;99961.56;;;20.11;61.16
16777;BME280;8505;49.456;8.164;2022-10-31T12:33:40;99933.94;;;19.74;62.48
16777;BME280;8505;49.456;8.164;2022-10-31T12:36:23;99927.91;;;18.99;65.18
16777;BME280;8505;49.456;8.164;2022-10-31T12:39:03;99914.88;;;19.39;64.66
16777;BME280;8505;49.456;8.164;2022-10-31T12:41:44;99917.06;;;19.67;63.39
16777;BME280;8505;49.456;8.164;2022-10-31T12:44:36;99912.19;;;19.76;62.98
16777;BME280;8505;49.456;8.164;2022-10-31T12:50:15;99910.00;;;19.85;63.78
16777;BME280;8505;49.456;8.164;2022-10-31T12:52:56;99901.81;;;20.09;62.10
16777;BME280;8505;49.456;8.164;2022-10-31T12:55:40;99903.72;;;19.61;63.70
16777;BME280;8505;49.456;8.164;2022-10-31T12:58:12;99892.34;;;19.59;63.34
16777;BME280;8505;49.456;8.164;2022-10-31T13:00:44;99879.28;;;19.26;64.05
16777;BME280;8505;49.456;8.164;2022-10-31T13:03:25;99865.56;;;19.52;63.49
16777;BME280;8505;49.456;8.164;2022-10-31T13:05:57;99876.59;;;19.26;64.13
16777;BME280;8505;49.456;8.164;2022-10-31T13:08:29;99862.81;;;19.04;64.67
16777;BME280;8505;49.456;8.164;2022-10-31T13:11:05;99863.41;;;19.24;65.00
16777;BME280;8505;49.456;8.164;2022-10-31T13:13:36;99856.69;;;19.15;65.58
16777;BME280;8505;49.456;8.164;2022-10-31T13:16:11;99859.59;;;19.32;65.07
16777;BME280;8505;49.456;8.164;2022-10-31T13:18:44;99860.06;;;19.29;65.57
16777;BME280;8505;49.456;8.164;2022-10-31T13:21:19;99852.44;;;19.44;64.61
16777;BME280;8505;49.456;8.164;2022-10-31T13:23:50;99857.38;;;20.60;62.79
16777;BME280;8505;49.456;8.164;2022-10-31T13:26:33;99859.56;;;22.51;57.44
16777;BME280;8505;49.456;8.164;2022-10-31T13:29:08;99880.31;;;23.01;53.28
16777;BME280;8505;49.456;8.164;2022-10-31T13:31:40;99872.78;;;23.25;52.73
16777;BME280;8505;49.456;8.164;2022-10-31T13:34:19;99863.34;;;23.71;52.13
16777;BME280;8505;49.456;8.164;2022-10-31T13:36:53;99861.34;;;23.39;52.91